createdAt,value
2016-07-25T00:00:36.153Z,1012.01
2016-07-25T00:01:36.181Z,1012
2016-07-25T00:02:36.207Z,1012.04
2016-07-25T00:03:36.234Z,1012
2016-07-25T00:04:36.259Z,1011.98
2016-07-25T00:05:36.287Z,1012
2016-07-25T00:06:36.312Z,1012
2016-07-25T00:07:36.338Z,1012.02
2016-07-25T00:08:36.364Z,1011.99
2016-07-25T00:09:36.391Z,1012.03
2016-07-25T00:10:36.417Z,1012.03
2016-07-25T00:11:36.442Z,1012.02
2016-07-25T00:12:36.469Z,1012.02
2016-07-25T00:13:36.504Z,1012.03
2016-07-25T00:14:36.522Z,1011.99
2016-07-25T00:15:36.548Z,1012
2016-07-25T00:16:36.624Z,1012.01
2016-07-25T00:17:36.601Z,1012.01
2016-07-25T00:18:36.626Z,1011.96
2016-07-25T00:19:36.653Z,1011.95
2016-07-25T00:20:36.681Z,1011.98
2016-07-25T00:21:36.729Z,1011.97
2016-07-25T00:22:36.737Z,1011.98
2016-07-25T00:23:36.759Z,1012.01
2016-07-25T00:24:36.787Z,1011.97
2016-07-25T00:25:36.812Z,1011.97
2016-07-25T00:26:36.838Z,1011.97
2016-07-25T00:27:36.864Z,1011.97
2016-07-25T00:28:36.890Z,1011.95
2016-07-25T00:29:36.916Z,1011.93
2016-07-25T00:30:36.943Z,1011.93
2016-07-25T00:31:36.970Z,1011.93
2016-07-25T00:32:36.995Z,1011.92
2016-07-25T00:33:37.022Z,1011.9
2016-07-25T00:34:37.049Z,1011.93
2016-07-25T00:35:37.075Z,1011.93
2016-07-25T00:36:37.103Z,1011.94
2016-07-25T00:37:37.131Z,1011.92
2016-07-25T00:38:37.155Z,1011.97
2016-07-25T00:39:37.181Z,1011.96
2016-07-25T00:40:37.208Z,1011.94
2016-07-25T00:41:37.234Z,1011.92
2016-07-25T00:42:37.261Z,1011.95
2016-07-25T00:43:37.286Z,1011.94
2016-07-25T00:44:37.313Z,1011.95
2016-07-25T00:45:37.340Z,1011.95
2016-07-25T00:46:37.365Z,1011.96
2016-07-25T00:47:37.391Z,1011.96
2016-07-25T00:48:37.417Z,1011.95
2016-07-25T00:49:37.444Z,1011.93
2016-07-25T00:50:37.470Z,1011.96
2016-07-25T00:51:37.497Z,1011.93
2016-07-25T00:52:37.524Z,1011.94
2016-07-25T00:53:37.565Z,1011.95
2016-07-25T00:54:37.576Z,1011.94
2016-07-25T00:55:37.603Z,1011.89
2016-07-25T00:56:37.629Z,1011.93
2016-07-25T00:57:37.655Z,1011.9
2016-07-25T00:58:37.681Z,1011.9
2016-07-25T00:59:37.708Z,1011.92
2016-07-25T01:00:37.735Z,1011.92
2016-07-25T01:01:37.760Z,1011.92
2016-07-25T01:02:37.792Z,1011.91
2016-07-25T01:03:37.814Z,1011.94
2016-07-25T01:04:37.841Z,1011.92
2016-07-25T01:05:37.866Z,1011.93
2016-07-25T01:06:37.893Z,1011.92
2016-07-25T01:07:37.919Z,1011.94
2016-07-25T01:08:37.945Z,1011.9
2016-07-25T01:09:37.971Z,1011.88
2016-07-25T01:10:37.998Z,1011.92
2016-07-25T01:11:38.025Z,1011.91
2016-07-25T01:12:38.050Z,1011.92
2016-07-25T01:13:38.077Z,1011.93
2016-07-25T01:14:38.104Z,1011.92
2016-07-25T01:15:38.131Z,1011.94
2016-07-25T01:16:38.205Z,1011.96
2016-07-25T01:17:38.183Z,1011.94
2016-07-25T01:18:38.208Z,1011.96
2016-07-25T01:19:38.234Z,1011.93
2016-07-25T01:20:38.261Z,1011.93
2016-07-25T01:21:38.288Z,1011.97
2016-07-25T01:22:38.314Z,1011.9
2016-07-25T01:23:38.339Z,1011.95
2016-07-25T01:24:38.367Z,1011.93
2016-07-25T01:25:38.392Z,1011.92
2016-07-25T01:26:38.419Z,1011.91
2016-07-25T01:27:38.444Z,1011.91
2016-07-25T01:28:38.471Z,1011.88
2016-07-25T01:29:38.497Z,1011.91
2016-07-25T01:30:38.523Z,1011.89
2016-07-25T01:31:38.550Z,1011.88
2016-07-25T01:32:38.589Z,1011.89
2016-07-25T01:33:38.602Z,1011.88
2016-07-25T01:34:38.628Z,1011.9
2016-07-25T01:35:38.655Z,1011.94
2016-07-25T01:36:38.682Z,1011.91
2016-07-25T01:37:38.709Z,1011.88
2016-07-25T01:38:38.733Z,1011.9
2016-07-25T01:39:38.760Z,1011.93
2016-07-25T01:40:38.788Z,1011.9
2016-07-25T01:41:38.812Z,1011.93
2016-07-25T01:42:38.839Z,1011.93
2016-07-25T01:43:38.867Z,1011.96
2016-07-25T01:44:38.892Z,1011.96
2016-07-25T01:45:38.919Z,1011.94
2016-07-25T01:46:38.945Z,1011.92
2016-07-25T01:47:38.972Z,1011.91
2016-07-25T01:48:38.998Z,1011.94
2016-07-25T01:49:39.025Z,1011.94
2016-07-25T01:50:39.051Z,1011.93
2016-07-25T01:51:39.078Z,1011.94
2016-07-25T01:52:39.102Z,1011.93
2016-07-25T01:53:39.129Z,1011.91
2016-07-25T01:54:39.156Z,1011.93
2016-07-25T01:55:39.182Z,1011.97
2016-07-25T01:56:39.208Z,1011.97
2016-07-25T01:57:39.234Z,1011.98
2016-07-25T01:58:39.261Z,1011.96
2016-07-25T01:59:39.287Z,1011.97
2016-07-25T02:00:39.313Z,1011.99
2016-07-25T02:01:39.339Z,1011.99
2016-07-25T02:02:39.366Z,1011.96
2016-07-25T02:03:39.391Z,1012
2016-07-25T02:04:39.427Z,1011.98
2016-07-25T02:05:39.448Z,1011.95
2016-07-25T02:06:39.477Z,1011.96
2016-07-25T02:07:39.497Z,1011.95
2016-07-25T02:08:39.524Z,1011.91
2016-07-25T02:09:39.551Z,1011.9
2016-07-25T02:10:39.577Z,1011.89
2016-07-25T02:11:39.609Z,1011.92
2016-07-25T02:12:39.651Z,1011.89
2016-07-25T02:13:39.657Z,1011.9
2016-07-25T02:14:39.682Z,1011.88
2016-07-25T02:15:39.709Z,1011.86
2016-07-25T02:16:39.735Z,1011.82
2016-07-25T02:17:39.762Z,1011.84
2016-07-25T02:18:39.788Z,1011.82
2016-07-25T02:19:39.814Z,1011.82
2016-07-25T02:20:39.841Z,1011.81
2016-07-25T02:21:39.868Z,1011.82
2016-07-25T02:22:39.893Z,1011.82
2016-07-25T02:23:39.921Z,1011.81
2016-07-25T02:24:39.959Z,1011.79
2016-07-25T02:25:39.973Z,1011.8
2016-07-25T02:26:39.999Z,1011.8
2016-07-25T02:27:40.026Z,1011.76
2016-07-25T02:28:40.053Z,1011.78
2016-07-25T02:29:40.083Z,1011.8
2016-07-25T02:30:40.105Z,1011.82
2016-07-25T02:31:40.131Z,1011.77
2016-07-25T02:32:40.156Z,1011.77
2016-07-25T02:33:40.183Z,1011.76
2016-07-25T02:34:40.209Z,1011.78
2016-07-25T02:35:40.239Z,1011.76
2016-07-25T02:36:40.262Z,1011.77
2016-07-25T02:37:40.288Z,1011.78
2016-07-25T02:38:40.315Z,1011.75
2016-07-25T02:39:40.350Z,1011.78
2016-07-25T02:40:40.367Z,1011.74
2016-07-25T02:41:40.393Z,1011.78
2016-07-25T02:42:40.420Z,1011.76
2016-07-25T02:43:40.453Z,1011.78
2016-07-25T02:44:40.474Z,1011.75
2016-07-25T02:45:40.499Z,1011.74
2016-07-25T02:46:40.525Z,1011.74
2016-07-25T02:47:40.551Z,1011.76
2016-07-25T02:48:40.578Z,1011.75
2016-07-25T02:49:40.604Z,1011.73
2016-07-25T02:50:40.631Z,1011.73
2016-07-25T02:51:40.676Z,1011.69
2016-07-25T02:52:40.683Z,1011.67
2016-07-25T02:53:40.710Z,1011.68
2016-07-25T02:54:40.735Z,1011.63
2016-07-25T02:55:40.762Z,1011.69
2016-07-25T02:56:40.788Z,1011.67
2016-07-25T02:57:40.816Z,1011.63
2016-07-25T02:58:40.841Z,1011.64
2016-07-25T02:59:40.867Z,1011.68
2016-07-25T03:00:40.893Z,1011.65
2016-07-25T03:01:40.921Z,1011.64
2016-07-25T03:02:40.945Z,1011.66
2016-07-25T03:03:40.973Z,1011.64
2016-07-25T03:04:40.999Z,1011.65
2016-07-25T03:05:41.024Z,1011.67
2016-07-25T03:06:41.059Z,1011.67
2016-07-25T03:07:41.078Z,1011.68
2016-07-25T03:08:41.116Z,1011.66
2016-07-25T03:09:41.130Z,1011.71
2016-07-25T03:10:41.157Z,1011.71
2016-07-25T03:11:41.184Z,1011.71
2016-07-25T03:12:41.210Z,1011.71
2016-07-25T03:13:41.235Z,1011.7
2016-07-25T03:14:41.262Z,1011.68
2016-07-25T03:15:41.290Z,1011.69
2016-07-25T03:16:41.315Z,1011.67
2016-07-25T03:17:41.341Z,1011.65
2016-07-25T03:18:41.372Z,1011.7
2016-07-25T03:19:41.394Z,1011.67
2016-07-25T03:20:41.419Z,1011.67
2016-07-25T03:21:41.446Z,1011.63
2016-07-25T03:22:41.472Z,1011.69
2016-07-25T03:23:41.512Z,1011.67
2016-07-25T03:24:41.524Z,1011.63
2016-07-25T03:25:41.551Z,1011.61
2016-07-25T03:26:41.577Z,1011.6
2016-07-25T03:27:41.603Z,1011.63
2016-07-25T03:28:41.630Z,1011.63
2016-07-25T03:29:41.656Z,1011.64
2016-07-25T03:30:41.683Z,1011.64
2016-07-25T03:31:41.708Z,1011.6
2016-07-25T03:32:41.735Z,1011.61
2016-07-25T03:33:41.761Z,1011.57
2016-07-25T03:34:41.787Z,1011.61
2016-07-25T03:35:41.814Z,1011.6
2016-07-25T03:36:41.840Z,1011.6
2016-07-25T03:37:41.867Z,1011.59
2016-07-25T03:38:41.892Z,1011.66
2016-07-25T03:39:41.919Z,1011.58
2016-07-25T03:40:41.945Z,1011.57
2016-07-25T03:41:41.971Z,1011.6
2016-07-25T03:42:41.997Z,1011.6
2016-07-25T03:43:42.023Z,1011.61
2016-07-25T03:44:42.050Z,1011.61
2016-07-25T03:45:42.077Z,1011.6
2016-07-25T03:46:42.103Z,1011.59
2016-07-25T03:47:42.130Z,1011.57
2016-07-25T03:48:42.156Z,1011.62
2016-07-25T03:49:42.181Z,1011.64
2016-07-25T03:50:42.208Z,1011.55
2016-07-25T03:51:42.235Z,1011.56
2016-07-25T03:52:42.262Z,1011.5
2016-07-25T03:53:42.287Z,1011.5
2016-07-25T03:54:42.314Z,1011.5
2016-07-25T03:55:42.341Z,1011.46
2016-07-25T03:56:42.365Z,1011.49
2016-07-25T03:57:42.392Z,1011.47
2016-07-25T03:58:42.418Z,1011.48
2016-07-25T03:59:42.446Z,1011.44
2016-07-25T04:00:42.471Z,1011.47
2016-07-25T04:01:42.498Z,1011.46
2016-07-25T04:02:42.539Z,1011.43
2016-07-25T04:03:42.551Z,1011.48
2016-07-25T04:04:42.576Z,1011.44
2016-07-25T04:05:42.603Z,1011.46
2016-07-25T04:06:42.630Z,1011.47
2016-07-25T04:07:42.654Z,1011.51
2016-07-25T04:08:42.681Z,1011.49
2016-07-25T04:09:42.707Z,1011.52
2016-07-25T04:10:42.733Z,1011.54
2016-07-25T04:11:42.760Z,1011.54
2016-07-25T04:12:42.786Z,1011.55
2016-07-25T04:13:42.812Z,1011.5
2016-07-25T04:14:42.839Z,1011.49
2016-07-25T04:15:42.866Z,1011.53
2016-07-25T04:16:42.890Z,1011.49
2016-07-25T04:17:42.928Z,1011.49
2016-07-25T04:18:42.943Z,1011.47
2016-07-25T04:19:42.970Z,1011.5
2016-07-25T04:20:42.997Z,1011.48
2016-07-25T04:21:43.023Z,1011.5
2016-07-25T04:22:43.048Z,1011.47
2016-07-25T04:23:43.076Z,1011.54
2016-07-25T04:24:43.102Z,1011.5
2016-07-25T04:25:43.128Z,1011.5
2016-07-25T04:26:43.153Z,1011.47
2016-07-25T04:27:43.180Z,1011.45
2016-07-25T04:28:43.223Z,1011.43
2016-07-25T04:29:43.232Z,1011.45
2016-07-25T04:30:43.259Z,1011.46
2016-07-25T04:31:43.286Z,1011.46
2016-07-25T04:32:43.313Z,1011.41
2016-07-25T04:33:43.338Z,1011.45
2016-07-25T04:34:43.373Z,1011.42
2016-07-25T04:35:43.391Z,1011.46
2016-07-25T04:36:43.418Z,1011.44
2016-07-25T04:37:43.443Z,1011.44
2016-07-25T04:38:43.471Z,1011.49
2016-07-25T04:39:43.497Z,1011.41
2016-07-25T04:40:43.523Z,1011.46
2016-07-25T04:41:43.549Z,1011.52
2016-07-25T04:42:43.598Z,1011.5
2016-07-25T04:43:43.603Z,1011.7
2016-07-25T04:44:43.628Z,1011.46
2016-07-25T04:45:43.655Z,1011.49
2016-07-25T04:46:43.681Z,1011.52
2016-07-25T04:47:43.713Z,1011.46
2016-07-25T04:48:43.734Z,1011.47
2016-07-25T04:49:43.761Z,1011.46
2016-07-25T04:50:43.787Z,1011.5
2016-07-25T04:51:43.814Z,1011.49
2016-07-25T04:52:43.839Z,1011.46
2016-07-25T04:53:43.866Z,1011.45
2016-07-25T04:54:43.894Z,1011.48
2016-07-25T04:55:43.918Z,1011.51
2016-07-25T04:56:43.944Z,1011.48
2016-07-25T04:57:43.971Z,1011.47
2016-07-25T04:58:43.998Z,1011.39
2016-07-25T04:59:44.024Z,1011.64
2016-07-25T05:00:44.050Z,1011.25
2016-07-25T05:01:44.077Z,1011.28
2016-07-25T05:02:44.101Z,1011.23
2016-07-25T05:03:44.129Z,1011.27
2016-07-25T05:04:44.155Z,1011.27
2016-07-25T05:05:44.184Z,1011.29
2016-07-25T05:06:44.207Z,1011.28
2016-07-25T05:07:44.235Z,1011.28
2016-07-25T05:08:44.261Z,1011.27
2016-07-25T05:09:44.288Z,1011.31
2016-07-25T05:10:44.315Z,1011.74
2016-07-25T05:11:44.341Z,1011.28
2016-07-25T05:12:44.368Z,1011.32
2016-07-25T05:13:44.400Z,1011.28
2016-07-25T05:14:44.420Z,1011.75
2016-07-25T05:15:44.446Z,1011.75
2016-07-25T05:16:44.473Z,1011.32
2016-07-25T05:17:44.498Z,1011.32
2016-07-25T05:18:44.525Z,1011.32
2016-07-25T05:19:44.551Z,1011.73
2016-07-25T05:20:44.578Z,1011.37
2016-07-25T05:21:44.623Z,1011.33
2016-07-25T05:22:44.630Z,1011.36
2016-07-25T05:23:44.658Z,1011.37
2016-07-25T05:24:44.690Z,1011.4
2016-07-25T05:25:44.710Z,1011.37
2016-07-25T05:26:44.737Z,1011.4
2016-07-25T05:27:44.764Z,1011.4
2016-07-25T05:28:44.789Z,1011.37
2016-07-25T05:29:44.816Z,1011.39
2016-07-25T05:30:44.843Z,1011.36
2016-07-25T05:31:44.868Z,1011.34
2016-07-25T05:32:44.895Z,1011.52
2016-07-25T05:33:44.921Z,1011.37
2016-07-25T05:34:44.949Z,1011.39
2016-07-25T05:35:44.974Z,1011.41
2016-07-25T05:36:45.008Z,1011.43
2016-07-25T05:37:45.031Z,1011.42
2016-07-25T05:38:45.056Z,1011.82
2016-07-25T05:39:45.080Z,1011.83
2016-07-25T05:40:45.107Z,1011.85
2016-07-25T05:41:45.134Z,1011.89
2016-07-25T05:42:45.159Z,1011.86
2016-07-25T05:43:45.186Z,1011.84
2016-07-25T05:44:45.214Z,1011.83
2016-07-25T05:45:45.240Z,1011.82
2016-07-25T05:46:45.267Z,1011.81
2016-07-25T05:47:45.292Z,1011.84
2016-07-25T05:48:45.319Z,1011.83
2016-07-25T05:49:45.345Z,1011.81
2016-07-25T05:50:45.371Z,1011.84
2016-07-25T05:51:45.397Z,1011.88
2016-07-25T05:52:45.424Z,1011.91
2016-07-25T05:53:45.461Z,1011.88
2016-07-25T05:54:45.476Z,1011.89
2016-07-25T05:55:45.504Z,1011.92
2016-07-25T05:56:45.529Z,1011.92
2016-07-25T05:57:45.555Z,1011.92
2016-07-25T05:58:45.584Z,1011.92
2016-07-25T05:59:45.609Z,1011.94
2016-07-25T06:00:45.635Z,1011.93
2016-07-25T06:01:45.684Z,1011.94
2016-07-25T06:02:45.687Z,1011.94
2016-07-25T06:03:45.716Z,1011.95
2016-07-25T06:04:45.741Z,1011.96
2016-07-25T06:05:45.768Z,1011.95
2016-07-25T06:06:45.794Z,1011.96
2016-07-25T06:07:45.822Z,1011.96
2016-07-25T06:08:45.846Z,1011.94
2016-07-25T06:09:45.874Z,1011.99
2016-07-25T06:10:45.900Z,1012
2016-07-25T06:11:45.928Z,1012.02
2016-07-25T06:12:45.953Z,1012
2016-07-25T06:13:45.980Z,1012.02
2016-07-25T06:14:46.006Z,1012.03
2016-07-25T06:15:46.033Z,1012.06
2016-07-25T06:16:46.059Z,1012.04
2016-07-25T06:17:46.087Z,1012.04
2016-07-25T06:18:46.113Z,1011.99
2016-07-25T06:19:46.139Z,1012.01
2016-07-25T06:20:46.165Z,1012.02
2016-07-25T06:21:46.192Z,1012.02
2016-07-25T06:22:46.218Z,1012.04
2016-07-25T06:23:46.244Z,1011.99
2016-07-25T06:24:46.280Z,1012.02
2016-07-25T06:25:46.297Z,1011.99
2016-07-25T06:26:46.323Z,1012
2016-07-25T06:27:46.350Z,1012
2016-07-25T06:28:46.376Z,1012.02
2016-07-25T06:29:46.402Z,1012
2016-07-25T06:30:46.427Z,1012.03
2016-07-25T06:31:46.453Z,1012.03
2016-07-25T06:33:46.505Z,1012.05
2016-07-25T06:34:46.548Z,1012.02
2016-07-25T06:35:46.557Z,1011.98
2016-07-25T06:36:46.581Z,1011.99
2016-07-25T06:37:46.606Z,1012
2016-07-25T06:38:46.632Z,1012.03
2016-07-25T06:39:46.657Z,1011.96
2016-07-25T06:40:46.683Z,1011.99
2016-07-25T06:41:46.707Z,1012.04
2016-07-25T06:42:46.732Z,1012.01
2016-07-25T06:43:46.758Z,1012.03
2016-07-25T06:44:46.785Z,1012.01
2016-07-25T06:45:46.807Z,1012.02
2016-07-25T06:46:46.834Z,1012.02
2016-07-25T06:47:46.860Z,1012.01
2016-07-25T06:48:46.886Z,1012.02
2016-07-25T06:49:46.907Z,1012.01
2016-07-25T06:50:46.933Z,1011.99
2016-07-25T06:51:46.958Z,1012.01
2016-07-25T06:52:46.981Z,1012
2016-07-25T06:53:47.007Z,1012
2016-07-25T06:54:47.032Z,1011.95
2016-07-25T06:55:47.058Z,1011.97
2016-07-25T06:56:47.098Z,1012.03
2016-07-25T06:57:47.105Z,1012.07
2016-07-25T06:58:47.131Z,1012
2016-07-25T06:59:47.154Z,1012.03
2016-07-25T07:00:47.178Z,1012.02
2016-07-25T07:01:47.202Z,1012.04
2016-07-25T07:02:47.226Z,1012.03
2016-07-25T07:03:47.255Z,1011.97
2016-07-25T07:04:47.274Z,1012.05
2016-07-25T07:05:47.299Z,1012.01
2016-07-25T07:06:47.322Z,1012.05
2016-07-25T07:07:47.345Z,1012.03
2016-07-25T07:08:47.370Z,1012.01
2016-07-25T07:09:47.395Z,1012.01
2016-07-25T07:10:47.418Z,1012.01
2016-07-25T07:11:47.452Z,1012
2016-07-25T07:12:47.465Z,1011.98
2016-07-25T07:13:47.489Z,1012.02
2016-07-25T07:14:47.513Z,1011.99
2016-07-25T07:15:47.536Z,1012
2016-07-25T07:16:47.561Z,1012.02
2016-07-25T07:17:47.585Z,1012
2016-07-25T07:18:47.612Z,1012.01
2016-07-25T07:19:47.633Z,1011.97
2016-07-25T07:20:47.656Z,1011.74
2016-07-25T07:21:47.679Z,1011.79
2016-07-25T07:22:47.705Z,1011.99
2016-07-25T07:23:47.729Z,1011.99
2016-07-25T07:24:47.777Z,1011.79
2016-07-25T07:25:47.795Z,1011.79
2016-07-25T07:26:47.813Z,1011.89
2016-07-25T07:27:47.841Z,1011.81
2016-07-25T07:28:47.844Z,1011.87
2016-07-25T07:29:47.866Z,1011.85
2016-07-25T07:30:47.888Z,1011.88
2016-07-25T07:31:47.912Z,1011.85
2016-07-25T07:32:47.933Z,1011.83
2016-07-25T07:33:47.956Z,1011.87
2016-07-25T07:34:47.982Z,1011.85
2016-07-25T07:35:48.003Z,1012.07
2016-07-25T07:36:48.023Z,1011.87
2016-07-25T07:37:48.046Z,1011.93
2016-07-25T07:38:48.068Z,1011.89
2016-07-25T07:39:48.090Z,1011.89
2016-07-25T07:40:48.111Z,1011.93
2016-07-25T07:41:48.135Z,1011.87
2016-07-25T07:42:48.158Z,1011.91
2016-07-25T07:43:48.179Z,1011.94
2016-07-25T07:44:48.202Z,1011.94
2016-07-25T07:45:48.225Z,1011.95
2016-07-25T07:46:48.249Z,1011.94
2016-07-25T07:47:48.270Z,1011.95
2016-07-25T07:48:48.294Z,1011.93
2016-07-25T07:49:48.318Z,1011.96
2016-07-25T07:50:48.359Z,1011.99
2016-07-25T07:51:48.364Z,1012
2016-07-25T07:52:48.386Z,1012.15
2016-07-25T07:53:48.410Z,1012.16
2016-07-25T07:54:48.432Z,1012.16
2016-07-25T07:55:48.455Z,1012.17
2016-07-25T07:56:48.482Z,1012.16
2016-07-25T07:57:48.505Z,1012.12
2016-07-25T07:58:48.525Z,1012.15
2016-07-25T07:59:48.547Z,1012.14
2016-07-25T08:00:48.570Z,1012.17
2016-07-25T08:01:48.593Z,1012.12
2016-07-25T08:02:48.617Z,1012.18
2016-07-25T08:03:48.643Z,1012.19
2016-07-25T08:04:48.664Z,1012.16
2016-07-25T08:05:48.683Z,1012.13
2016-07-25T08:06:48.706Z,1012.14
2016-07-25T08:07:48.730Z,1012.15
2016-07-25T08:08:48.752Z,1012.12
2016-07-25T08:09:48.776Z,1012.11
2016-07-25T08:10:48.798Z,1012.1
2016-07-25T08:11:48.822Z,1012.13
2016-07-25T08:12:48.845Z,1012.09
2016-07-25T08:13:48.879Z,1012.09
2016-07-25T08:14:48.892Z,1012.09
2016-07-25T08:15:48.914Z,1012.09
2016-07-25T08:16:48.937Z,1012.05
2016-07-25T08:17:48.961Z,1012.01
2016-07-25T08:18:48.985Z,1011.97
2016-07-25T08:19:49.009Z,1011.98
2016-07-25T08:20:49.033Z,1011.98
2016-07-25T08:21:49.057Z,1012
2016-07-25T08:22:49.211Z,1011.99
2016-07-25T08:23:49.108Z,1012.01
2016-07-25T08:24:49.128Z,1011.96
2016-07-25T08:25:49.153Z,1011.98
2016-07-25T08:26:49.177Z,1011.91
2016-07-25T08:27:49.198Z,1011.98
2016-07-25T08:28:49.280Z,1012.03
2016-07-25T08:29:49.247Z,1011.99
2016-07-25T08:30:49.287Z,1011.97
2016-07-25T08:31:49.294Z,1011.96
2016-07-25T08:32:49.320Z,1011.97
2016-07-25T08:33:49.343Z,1011.98
2016-07-25T08:34:49.367Z,1011.95
2016-07-25T08:35:49.391Z,1011.97
2016-07-25T08:36:49.417Z,1011.98
2016-07-25T08:37:49.443Z,1012
2016-07-25T08:38:55.365Z,1011.95
2016-07-25T08:39:55.389Z,1011.78
2016-07-25T08:40:55.415Z,1011.76
2016-07-25T08:41:55.438Z,1011.74
2016-07-25T08:42:55.465Z,1011.72
2016-07-25T08:43:55.519Z,1011.71
2016-07-25T08:44:55.515Z,1011.77
2016-07-25T08:45:55.540Z,1011.73
2016-07-25T08:46:55.566Z,1011.69
2016-07-25T08:47:55.592Z,1011.73
2016-07-25T08:48:55.616Z,1011.7
2016-07-25T08:49:55.643Z,1011.68
2016-07-25T08:50:55.675Z,1011.68
2016-07-25T08:51:55.704Z,1011.74
2016-07-25T08:52:55.719Z,1011.68
2016-07-25T08:53:55.747Z,1011.66
2016-07-25T08:54:55.772Z,1011.71
2016-07-25T08:55:55.798Z,1011.75
2016-07-25T08:56:55.823Z,1011.7
2016-07-25T08:57:55.850Z,1011.71
2016-07-25T08:58:55.875Z,1011.7
2016-07-25T08:59:55.902Z,1011.69
2016-07-25T09:00:55.928Z,1011.7
2016-07-25T09:01:55.955Z,1011.73
2016-07-25T09:02:55.998Z,1011.65
2016-07-25T09:03:56.008Z,1011.69
2016-07-25T09:04:56.034Z,1011.67
2016-07-25T09:05:56.061Z,1011.7
2016-07-25T09:06:56.088Z,1011.65
2016-07-25T09:07:56.114Z,1011.67
2016-07-25T09:08:56.141Z,1011.63
2016-07-25T09:09:56.172Z,1011.64
2016-07-25T09:10:56.194Z,1011.62
2016-07-25T09:11:56.232Z,1011.63
2016-07-25T09:12:56.246Z,1011.67
2016-07-25T09:13:56.275Z,1011.62
2016-07-25T09:14:56.302Z,1011.64
2016-07-25T09:15:56.329Z,1011.67
2016-07-25T09:16:56.354Z,1011.65
2016-07-25T09:17:56.388Z,1011.62
2016-07-25T09:18:56.406Z,1011.64
2016-07-25T09:19:56.435Z,1011.62
2016-07-25T09:20:56.461Z,1011.62
2016-07-25T09:21:56.488Z,1011.73
2016-07-25T09:22:56.515Z,1011.65
2016-07-25T09:23:56.541Z,1011.61
2016-07-25T09:24:56.569Z,1011.73
2016-07-25T09:25:56.594Z,1011.63
2016-07-25T09:26:56.622Z,1011.57
2016-07-25T09:27:56.657Z,1011.61
2016-07-25T09:28:56.677Z,1011.59
2016-07-25T09:29:56.703Z,1011.6
2016-07-25T09:30:56.731Z,1011.62
2016-07-25T09:31:56.756Z,1011.84
2016-07-25T09:32:56.782Z,1011.61
2016-07-25T09:33:56.810Z,1011.59
2016-07-25T09:34:56.836Z,1011.59
2016-07-25T09:35:56.864Z,1011.58
2016-07-25T09:36:56.890Z,1011.77
2016-07-25T09:37:56.916Z,1011.6
2016-07-25T09:38:56.954Z,1011.58
2016-07-25T09:39:56.971Z,1011.66
2016-07-25T09:40:56.997Z,1011.57
2016-07-25T09:41:57.024Z,1011.81
2016-07-25T09:42:57.051Z,1011.82
2016-07-25T09:43:57.077Z,1011.76
2016-07-25T09:44:57.104Z,1011.58
2016-07-25T09:45:57.131Z,1011.52
2016-07-25T09:46:57.176Z,1011.75
2016-07-25T09:47:57.184Z,1011.52
